Time;durP1;ratioP1;P1;durP2;ratioP2;P2;SDS_P1;SDS_P2;PMS_P1;PMS_P2;Temp;Humidity;BMP_temperature;BMP_pressure;BME280_temperature;BME280_humidity;BME280_pressure;Samples;Min_cycle;Max_cycle;Signal;HPM_P1;HPM_P2
2021/05/10 00:04:09;;;;;;;0.77;0.77;;;21.30;49.50;;;;;;10493578;28;20246;-15
2021/05/10 00:09:30;;;;;;;0.70;0.70;;;21.20;49.90;;;;;;10493391;28;20238;-14
2021/05/10 00:14:52;;;;;;;0.70;0.70;;;21.30;49.70;;;;;;10484961;28;20200;-14
2021/05/10 00:20:15;;;;;;;0.80;0.70;;;21.20;50.50;;;;;;10450894;28;20225;-15
2021/05/10 00:25:37;;;;;;;0.80;0.80;;;21.30;49.80;;;;;;10451852;28;20694;-15
2021/05/10 00:30:59;;;;;;;2.13;0.90;;;21.30;49.60;;;;;;10471395;28;20213;-15
2021/05/10 00:36:21;;;;;;;0.80;0.80;;;21.20;49.70;;;;;;10455116;28;20201;-14
2021/05/10 00:41:43;;;;;;;0.80;0.80;;;21.20;49.80;;;;;;10450654;28;20707;-14
2021/05/10 00:47:05;;;;;;;0.60;0.60;;;21.10;49.90;;;;;;10450620;28;20201;-15
2021/05/10 00:52:27;;;;;;;0.80;0.80;;;21.30;49.50;;;;;;10450845;28;20213;-14
2021/05/10 00:57:51;;;;;;;0.70;0.70;;;21.20;49.80;;;;;;10451068;28;20197;-14
2021/05/10 01:03:13;;;;;;;0.90;0.90;;;21.20;49.80;;;;;;10456559;28;20591;-15
2021/05/10 01:08:36;;;;;;;0.60;0.50;;;21.20;49.70;;;;;;10456878;28;20700;-14
2021/05/10 01:13:57;;;;;;;0.60;0.60;;;21.20;49.80;;;;;;10440573;28;20223;-14
2021/05/10 01:19:22;;;;;;;0.70;0.63;;;21.30;49.60;;;;;;10414990;28;20225;-15
2021/05/10 01:24:44;;;;;;;1.37;0.90;;;21.20;49.80;;;;;;10415645;28;20193;-14
2021/05/10 01:30:08;;;;;;;0.80;0.80;;;21.20;49.80;;;;;;10415295;28;20214;-15
2021/05/10 01:35:32;;;;;;;0.73;0.73;;;21.30;49.50;;;;;;10415731;28;20190;-14
2021/05/10 01:40:54;;;;;;;0.60;0.60;;;21.30;49.70;;;;;;10414682;28;20275;-15
2021/05/10 01:46:16;;;;;;;0.70;0.70;;;21.20;49.60;;;;;;10414640;28;20623;-14
2021/05/10 01:51:37;;;;;;;0.80;0.70;;;21.20;49.40;;;;;;10414570;28;20221;-14
2021/05/10 01:57:00;;;;;;;0.70;0.60;;;21.20;49.70;;;;;;10413967;28;20201;-14
2021/05/10 02:02:21;;;;;;;0.97;0.97;;;21.30;49.70;;;;;;10447638;28;20221;-14
2021/05/10 02:07:45;;;;;;;0.60;0.60;;;21.40;49.40;;;;;;10454828;28;20580;-15
2021/05/10 02:13:09;;;;;;;0.70;0.70;;;21.10;49.60;;;;;;10481897;28;20203;-14
2021/05/10 02:18:33;;;;;;;0.80;0.70;;;21.30;49.70;;;;;;10456716;28;20243;-15
2021/05/10 02:23:54;;;;;;;0.77;0.70;;;21.20;49.50;;;;;;10470446;28;20728;-15
2021/05/10 02:29:17;;;;;;;0.60;0.60;;;21.20;49.80;;;;;;10454636;28;20699;-14
2021/05/10 02:34:38;;;;;;;0.83;0.73;;;21.10;49.80;;;;;;10462444;28;20456;-15
2021/05/10 02:40:00;;;;;;;0.63;0.63;;;21.20;49.80;;;;;;10462863;28;20583;-14
2021/05/10 02:45:23;;;;;;;0.80;0.80;;;21.10;49.90;;;;;;10453802;28;20201;-14
2021/05/10 02:50:45;;;;;;;0.77;0.73;;;21.20;49.80;;;;;;10452987;28;20212;-14
2021/05/10 02:56:06;;;;;;;0.80;0.80;;;21.40;49.10;;;;;;10452852;28;20679;-15
2021/05/10 03:01:29;;;;;;;1.13;0.60;;;21.30;49.60;;;;;;10510357;22;20633;-16
2021/05/10 03:06:50;;;;;;;0.70;0.70;;;21.30;49.20;;;;;;10538015;28;20209;-14
2021/05/10 03:12:12;;;;;;;0.60;0.60;;;21.30;49.20;;;;;;10535552;28;20218;-16
2021/05/10 03:17:34;;;;;;;2.43;0.80;;;21.20;49.70;;;;;;10548094;28;20196;-14
2021/05/10 03:22:56;;;;;;;0.57;0.57;;;21.30;49.70;;;;;;10548844;28;20230;-17
2021/05/10 03:28:18;;;;;;;0.77;0.63;;;21.30;49.20;;;;;;10552580;28;20199;-15
2021/05/10 03:33:40;;;;;;;0.80;0.80;;;21.30;49.30;;;;;;10551788;28;20262;-16
2021/05/10 03:39:03;;;;;;;0.80;0.80;;;21.40;49.40;;;;;;10555665;28;20580;-17
2021/05/10 03:44:25;;;;;;;0.70;0.70;;;21.30;49.00;;;;;;10554277;28;20215;-17
2021/05/10 03:49:47;;;;;;;0.67;0.60;;;21.40;49.00;;;;;;10552752;28;20217;-18
2021/05/10 03:55:11;;;;;;;0.60;0.60;;;21.30;49.20;;;;;;10551171;28;20192;-19
2021/05/10 04:00:33;;;;;;;1.33;0.63;;;21.20;49.20;;;;;;10550763;28;20228;-15
2021/05/10 04:06:24;;;;;;;1.00;0.70;;;21.20;49.10;;;;;;10509537;28;20196;-16
2021/05/10 04:17:26;;;;;;;0.63;0.63;;;21.20;49.40;;;;;;10536153;28;20206;-17
2021/05/10 04:22:48;;;;;;;1.17;0.63;;;21.30;49.30;;;;;;10542566;28;20213;-15
2021/05/10 04:28:10;;;;;;;1.83;0.63;;;21.30;49.20;;;;;;10540678;28;20204;-16
2021/05/10 04:33:33;;;;;;;1.27;0.50;;;21.20;49.10;;;;;;10550672;28;20237;-17
2021/05/10 04:38:55;;;;;;;0.57;0.50;;;21.20;49.40;;;;;;10558496;28;20227;-17
2021/05/10 04:44:17;;;;;;;0.50;0.50;;;21.30;49.50;;;;;;10562154;28;20192;-15
2021/05/10 04:49:38;;;;;;;0.77;0.77;;;21.20;49.40;;;;;;10549821;28;20207;-16
2021/05/10 04:55:01;;;;;;;0.70;0.70;;;21.40;49.30;;;;;;10507886;28;20195;-17
2021/05/10 05:00:22;;;;;;;1.00;0.80;;;21.40;49.20;;;;;;10518352;28;20224;-15
2021/05/10 05:05:44;;;;;;;0.93;0.60;;;21.30;49.00;;;;;;10541108;28;20199;-16
2021/05/10 05:11:06;;;;;;;0.60;0.60;;;21.40;49.10;;;;;;10551283;28;20215;-16
2021/05/10 05:16:28;;;;;;;0.93;0.70;;;21.30;49.10;;;;;;10551333;28;20204;-13
2021/05/10 05:21:51;;;;;;;1.90;0.60;;;21.30;49.20;;;;;;10549635;28;20219;-17
2021/05/10 05:27:13;;;;;;;0.50;0.50;;;21.50;49.50;;;;;;10543195;28;20196;-17
2021/05/10 05:32:35;;;;;;;0.70;0.70;;;21.40;49.30;;;;;;10544284;28;20215;-15
2021/05/10 05:37:56;;;;;;;1.60;0.80;;;21.40;49.00;;;;;;10545923;28;20196;-18
2021/05/10 05:43:18;;;;;;;0.60;0.60;;;21.50;49.20;;;;;;10546737;28;20226;-15
2021/05/10 05:48:40;;;;;;;0.60;0.60;;;21.60;49.20;;;;;;10533043;28;20210;-17
2021/05/10 05:54:02;;;;;;;1.00;0.83;;;21.60;48.60;;;;;;10533940;28;20218;-17
2021/05/10 05:59:25;;;;;;;2.07;0.67;;;21.70;48.50;;;;;;10546204;28;20227;-15
2021/05/10 06:04:46;;;;;;;0.57;0.53;;;21.80;48.00;;;;;;10546896;28;20203;-16
2021/05/10 06:10:10;;;;;;;1.53;0.60;;;21.90;47.90;;;;;;10547467;28;20241;-16
2021/05/10 06:15:33;;;;;;;1.23;0.80;;;22.10;47.50;;;;;;10545710;28;20199;-15
2021/05/10 06:20:54;;;;;;;0.80;0.80;;;22.10;47.40;;;;;;10544357;28;20215;-14
2021/05/10 06:26:16;;;;;;;0.87;0.80;;;22.20;47.50;;;;;;10544133;28;20199;-16
2021/05/10 06:31:38;;;;;;;0.73;0.60;;;22.20;47.40;;;;;;10541478;28;20212;-17
2021/05/10 06:37:00;;;;;;;0.67;0.57;;;22.30;47.40;;;;;;10525064;28;20196;-16
2021/05/10 06:42:22;;;;;;;0.70;0.60;;;22.40;47.10;;;;;;10550812;28;20215;-15
2021/05/10 06:47:44;;;;;;;1.10;0.87;;;22.40;47.00;;;;;;10547280;28;20219;-15
2021/05/10 06:53:06;;;;;;;0.60;0.60;;;22.40;47.00;;;;;;10544697;28;20721;-17
2021/05/10 06:58:28;;;;;;;3.17;0.90;;;22.40;47.50;;;;;;10541446;28;20666;-16
2021/05/10 07:03:51;;;;;;;0.93;0.67;;;22.40;47.30;;;;;;10537586;28;20205;-17
2021/05/10 07:09:13;;;;;;;0.60;0.60;;;22.50;47.20;;;;;;10543547;28;20208;-17
2021/05/10 07:14:34;;;;;;;1.10;0.73;;;22.60;46.80;;;;;;10542807;28;20195;-15
2021/05/10 07:19:57;;;;;;;0.60;0.60;;;22.50;46.90;;;;;;10542613;28;20620;-14
2021/05/10 07:25:18;;;;;;;0.63;0.63;;;22.50;47.10;;;;;;10540289;28;20196;-15
2021/05/10 07:30:40;;;;;;;0.70;0.70;;;22.50;47.30;;;;;;10517171;28;20694;-13
2021/05/10 07:36:03;;;;;;;0.53;0.50;;;22.50;47.40;;;;;;10540556;28;20196;-16
2021/05/10 07:41:25;;;;;;;1.53;0.97;;;22.60;47.10;;;;;;10539535;28;20223;-17
2021/05/10 07:46:47;;;;;;;0.77;0.70;;;22.60;47.00;;;;;;10539703;28;20195;-15
2021/05/10 07:52:10;;;;;;;1.00;0.80;;;22.60;47.00;;;;;;10542810;28;20211;-17
2021/05/10 07:57:32;;;;;;;0.70;0.70;;;22.50;47.50;;;;;;10543123;28;20191;-16
2021/05/10 08:02:54;;;;;;;0.70;0.70;;;22.30;47.80;;;;;;10528968;28;20223;-15
2021/05/10 08:08:17;;;;;;;0.77;0.67;;;22.10;48.30;;;;;;10532034;28;20206;-14
2021/05/10 08:13:38;;;;;;;1.17;0.60;;;22.10;49.00;;;;;;10552240;28;20196;-15
2021/05/10 08:19:00;;;;;;;0.70;0.70;;;22.00;48.90;;;;;;10542843;28;20245;-14
2021/05/10 08:24:23;;;;;;;0.90;0.70;;;22.00;49.00;;;;;;10545004;28;20495;-14
2021/05/10 08:29:44;;;;;;;1.00;0.90;;;21.90;49.00;;;;;;10548320;28;20212;-14
2021/05/10 08:35:08;;;;;;;1.03;0.93;;;21.90;49.40;;;;;;10552880;28;20192;-18
2021/05/10 08:40:31;;;;;;;1.17;0.80;;;21.90;49.30;;;;;;10549286;28;20276;-13
2021/05/10 08:45:54;;;;;;;1.13;0.80;;;21.90;49.50;;;;;;10530237;28;20192;-16
2021/05/10 08:51:16;;;;;;;1.80;0.80;;;21.90;49.40;;;;;;10550962;28;20214;-15
2021/05/10 08:56:38;;;;;;;1.20;0.60;;;21.90;49.40;;;;;;10550380;28;20196;-18
2021/05/10 09:02:01;;;;;;;0.80;0.80;;;22.00;49.20;;;;;;10551346;22;20592;-15
2021/05/10 09:07:23;;;;;;;3.00;0.90;;;22.10;48.80;;;;;;10489149;28;20224;-14
2021/05/10 09:12:48;;;;;;;1.23;0.80;;;22.40;48.10;;;;;;10470598;28;20221;-14
2021/05/10 09:18:10;;;;;;;0.83;0.50;;;22.50;47.70;;;;;;10492937;28;20243;-15
2021/05/10 09:23:32;;;;;;;0.97;0.73;;;22.50;47.60;;;;;;10490554;28;20217;-15
2021/05/10 09:28:54;;;;;;;0.83;0.80;;;22.50;47.60;;;;;;10457636;28;20193;-15
2021/05/10 09:34:16;;;;;;;1.13;1.00;;;22.50;47.70;;;;;;10466124;28;20212;-14
2021/05/10 09:39:38;;;;;;;0.77;0.70;;;22.60;47.60;;;;;;10492806;28;20213;-15
2021/05/10 09:45:01;;;;;;;1.23;0.67;;;22.60;47.50;;;;;;10491501;28;20726;-15
2021/05/10 09:50:32;;;;;;;1.40;0.80;;;22.60;47.60;;;;;;10496891;28;20212;-15
2021/05/10 09:55:55;;;;;;;1.17;0.70;;;22.60;47.50;;;;;;10497965;28;20193;-14
2021/05/10 10:01:18;;;;;;;1.27;0.80;;;22.40;48.30;;;;;;10458064;28;20275;-14
2021/05/10 10:06:40;;;;;;;0.60;0.60;;;22.30;48.60;;;;;;10454236;28;20189;-15
2021/05/10 10:12:02;;;;;;;0.80;0.67;;;22.10;48.90;;;;;;10487282;28;20690;-15
2021/05/10 10:17:25;;;;;;;1.03;0.80;;;22.00;49.30;;;;;;10483851;28;20201;-15
2021/05/10 10:22:46;;;;;;;1.13;0.90;;;22.10;48.90;;;;;;10464809;28;20577;-14
2021/05/10 10:28:09;;;;;;;1.47;0.83;;;22.10;49.50;;;;;;10457073;28;20667;-14
2021/05/10 10:33:47;;;;;;;7.13;0.90;;;22.10;48.70;;;;;;10453972;28;20213;-14
2021/05/10 10:39:11;;;;;;;2.83;1.40;;;22.30;47.80;;;;;;10456652;28;20280;-15
2021/05/10 10:44:36;;;;;;;2.40;1.50;;;22.30;48.50;;;;;;10460848;28;20221;-14
2021/05/10 10:50:00;;;;;;;1.33;1.23;;;22.20;48.70;;;;;;10455048;28;20259;-14
2021/05/10 10:55:24;;;;;;;5.17;1.87;;;22.10;49.30;;;;;;10454220;28;20272;-14
2021/05/10 11:01:00;;;;;;;4.93;2.03;;;22.00;49.30;;;;;;10469573;28;20694;-14
2021/05/10 11:06:48;;;;;;;7.83;2.63;;;22.00;49.70;;;;;;10494863;28;20196;-14
2021/05/10 11:12:10;;;;;;;8.33;2.77;;;21.90;49.80;;;;;;10464755;28;20212;-15
2021/05/10 11:17:52;;;;;;;7.27;3.30;;;21.90;50.00;;;;;;10471456;28;20583;-14
2021/05/10 11:23:35;;;;;;;6.70;2.47;;;21.80;50.50;;;;;;10494188;28;20227;-14
2021/05/10 11:28:56;;;;;;;5.77;2.57;;;22.00;50.30;;;;;;10494250;28;20184;-14
2021/05/10 11:34:24;;;;;;;6.47;2.20;;;21.80;50.50;;;;;;10492346;28;20741;-14
2021/05/10 11:39:47;;;;;;;7.83;2.60;;;21.90;50.50;;;;;;10469383;28;20792;-14
2021/05/10 11:45:09;;;;;;;6.27;2.13;;;22.00;50.10;;;;;;10453017;28;20204;-14
2021/05/10 11:50:31;;;;;;;3.87;2.07;;;22.10;49.90;;;;;;10487435;28;20632;-14
2021/05/10 11:56:02;;;;;;;4.13;1.80;;;22.00;50.20;;;;;;10485221;28;20218;-14
2021/05/10 12:01:34;;;;;;;3.13;1.70;;;22.10;50.20;;;;;;10482090;28;20266;-14
2021/05/10 12:06:56;;;;;;;5.63;1.93;;;22.10;50.20;;;;;;10489960;28;20302;-13
2021/05/10 12:12:30;;;;;;;3.67;1.87;;;22.10;50.40;;;;;;10485131;28;20588;-14
2021/05/10 12:17:53;;;;;;;4.67;1.87;;;22.00;50.70;;;;;;10464170;28;20199;-14
2021/05/10 12:23:18;;;;;;;3.40;1.90;;;22.00;50.60;;;;;;10449593;28;20224;-14
2021/05/10 12:28:41;;;;;;;3.17;1.63;;;22.00;50.80;;;;;;10450184;28;20200;-14
2021/05/10 12:34:03;;;;;;;7.63;1.50;;;21.90;50.90;;;;;;10476788;28;20220;-14
2021/05/10 12:39:31;;;;;;;8.47;2.53;;;21.90;51.10;;;;;;10478010;28;20224;-14
2021/05/10 12:44:57;;;;;;;9.67;2.40;;;22.00;51.10;;;;;;10450332;28;20256;-15
2021/05/10 12:50:37;;;;;;;4.77;2.20;;;21.90;51.10;;;;;;10450789;28;20205;-15
2021/05/10 12:56:00;;;;;;;6.87;2.13;;;21.80;51.10;;;;;;10456337;28;20224;-14
2021/05/10 13:01:24;;;;;;;4.60;1.60;;;21.80;51.30;;;;;;10480861;28;20678;-15
2021/05/10 13:06:55;;;;;;;2.97;1.83;;;21.80;51.30;;;;;;10499254;28;20196;-14
2021/05/10 13:12:17;;;;;;;3.83;2.07;;;21.80;51.00;;;;;;10498243;28;20283;-15
2021/05/10 13:17:58;;;;;;;4.63;2.00;;;21.80;51.30;;;;;;10470042;28;20598;-14
2021/05/10 13:35:05;;;;;;;3.73;2.00;;;21.80;51.20;;;;;;10462039;28;20235;-15
2021/05/10 13:40:26;;;;;;;4.00;1.70;;;21.80;51.10;;;;;;10485970;28;20224;-14
2021/05/10 13:45:48;;;;;;;3.67;1.70;;;21.80;51.30;;;;;;10454594;28;20200;-15
2021/05/10 13:51:10;;;;;;;3.37;1.60;;;21.80;51.30;;;;;;10456918;28;20220;-15
2021/05/10 13:56:34;;;;;;;4.30;1.90;;;21.80;50.90;;;;;;10455941;28;20200;-15
2021/05/10 14:01:56;;;;;;;3.23;1.77;;;21.80;51.20;;;;;;10454920;28;20221;-15
2021/05/10 14:07:19;;;;;;;3.40;1.47;;;21.80;51.00;;;;;;10454372;28;20196;-16
2021/05/10 14:12:41;;;;;;;3.23;1.63;;;21.80;51.00;;;;;;10453571;28;20213;-16
2021/05/10 14:18:04;;;;;;;4.70;1.60;;;21.70;51.00;;;;;;10445177;28;20256;-15
2021/05/10 14:23:27;;;;;;;2.77;1.43;;;21.80;51.30;;;;;;10454471;28;20231;-16
2021/05/10 14:28:48;;;;;;;2.50;1.67;;;21.70;51.00;;;;;;10451980;28;20201;-15
2021/05/10 14:34:11;;;;;;;3.50;1.70;;;21.80;51.00;;;;;;10414106;28;20210;-15
2021/05/10 14:39:33;;;;;;;2.37;1.40;;;21.80;51.10;;;;;;10416841;28;20197;-15
2021/05/10 14:44:55;;;;;;;2.10;1.20;;;21.70;51.10;;;;;;10447577;28;20217;-14
2021/05/10 14:50:16;;;;;;;2.37;1.20;;;21.80;51.00;;;;;;10452513;28;20219;-14
2021/05/10 14:55:39;;;;;;;3.97;1.67;;;21.70;51.10;;;;;;10452958;28;20223;-15
2021/05/10 15:01:00;;;;;;;2.17;1.40;;;21.80;50.90;;;;;;10484209;22;20232;-15
2021/05/10 15:06:22;;;;;;;1.97;1.40;;;21.80;50.80;;;;;;10478161;28;20575;-16
2021/05/10 15:11:45;;;;;;;2.00;1.30;;;21.80;50.90;;;;;;10486550;28;20221;-15
2021/05/10 15:17:06;;;;;;;2.67;1.20;;;21.80;51.00;;;;;;10473652;28;20610;-15
2021/05/10 15:22:28;;;;;;;3.47;1.60;;;21.90;50.80;;;;;;10470735;28;20220;-14
2021/05/10 15:27:50;;;;;;;2.13;1.20;;;22.00;50.80;;;;;;10453193;28;20204;-16
2021/05/10 15:33:12;;;;;;;2.37;1.03;;;21.90;50.70;;;;;;10482294;28;20212;-15
2021/05/10 15:38:34;;;;;;;1.40;1.10;;;21.90;51.00;;;;;;10492561;28;20199;-15
2021/05/10 15:43:56;;;;;;;2.00;1.10;;;21.90;51.00;;;;;;10469484;28;20280;-14
2021/05/10 15:49:18;;;;;;;1.30;1.17;;;21.90;50.70;;;;;;10450050;28;20215;-14
2021/05/10 15:54:39;;;;;;;1.63;1.10;;;22.00;50.90;;;;;;10450470;28;20630;-14
2021/05/10 16:00:03;;;;;;;3.27;1.30;;;22.00;50.20;;;;;;10451426;28;20225;-14
2021/05/10 16:05:24;;;;;;;2.97;1.00;;;22.10;50.20;;;;;;10451186;28;20220;-13
2021/05/10 16:10:48;;;;;;;1.33;1.03;;;22.20;49.90;;;;;;10451228;28;20575;-15
2021/05/10 16:16:10;;;;;;;1.67;0.90;;;22.20;49.60;;;;;;10469031;28;20243;-14
2021/05/10 16:21:32;;;;;;;3.10;0.83;;;22.20;49.70;;;;;;10484312;28;20221;-15
2021/05/10 16:26:54;;;;;;;2.80;1.00;;;22.20;49.80;;;;;;10486324;28;20192;-14
2021/05/10 16:32:16;;;;;;;1.23;0.93;;;22.10;49.90;;;;;;10472184;28;20213;-15
2021/05/10 16:37:38;;;;;;;2.93;1.00;;;22.10;50.20;;;;;;10458817;28;20664;-15
2021/05/10 16:43:00;;;;;;;2.20;1.10;;;22.20;50.20;;;;;;10491258;28;20227;-15
2021/05/10 16:48:23;;;;;;;2.27;1.00;;;22.10;50.50;;;;;;10500557;28;20203;-13
2021/05/10 16:53:44;;;;;;;1.50;0.90;;;22.10;50.40;;;;;;10496352;28;20659;-15
2021/05/10 16:59:06;;;;;;;1.77;0.90;;;22.10;50.50;;;;;;10486341;28;20224;-14
2021/05/10 17:04:29;;;;;;;1.23;0.93;;;22.10;50.50;;;;;;10459828;28;20279;-12
2021/05/10 17:09:51;;;;;;;1.33;0.90;;;22.00;50.70;;;;;;10458394;28;20197;-15
2021/05/10 17:15:13;;;;;;;1.83;1.00;;;22.10;50.50;;;;;;10470656;28;20220;-15
2021/05/10 17:20:36;;;;;;;0.80;0.80;;;22.10;50.50;;;;;;10497488;28;20691;-14
2021/05/10 17:25:58;;;;;;;2.23;0.63;;;22.10;50.50;;;;;;10490184;28;20204;-14
2021/05/10 17:31:19;;;;;;;1.63;1.03;;;22.10;50.50;;;;;;10498558;28;20632;-15
2021/05/10 17:36:42;;;;;;;1.00;0.83;;;22.10;50.60;;;;;;10497801;28;20581;-15
2021/05/10 17:42:04;;;;;;;1.27;0.87;;;22.10;50.70;;;;;;10482779;28;20290;-15
2021/05/10 17:47:26;;;;;;;0.93;0.80;;;22.10;50.60;;;;;;10496717;28;20299;-16
2021/05/10 17:52:48;;;;;;;1.10;0.77;;;22.00;50.70;;;;;;10496572;28;20223;-14
2021/05/10 17:58:10;;;;;;;1.33;0.90;;;22.10;50.80;;;;;;10456113;28;20832;-13
2021/05/10 18:03:31;;;;;;;2.83;1.03;;;22.00;50.90;;;;;;10457447;28;20278;-14
2021/05/10 18:08:54;;;;;;;0.60;0.60;;;22.00;50.80;;;;;;10457332;28;20208;-15
2021/05/10 18:14:16;;;;;;;2.17;0.90;;;22.00;50.90;;;;;;10458999;28;20703;-14
2021/05/10 18:19:40;;;;;;;0.80;0.70;;;22.00;50.90;;;;;;10462907;28;20189;-15
2021/05/10 18:25:03;;;;;;;2.20;1.20;;;22.00;50.90;;;;;;10453826;28;20217;-15
2021/05/10 18:30:24;;;;;;;0.97;0.87;;;22.10;51.00;;;;;;10457343;28;20197;-15
2021/05/10 18:35:46;;;;;;;0.80;0.70;;;22.00;50.60;;;;;;10469975;28;20208;-14
2021/05/10 18:41:08;;;;;;;1.33;0.67;;;22.00;50.70;;;;;;10453504;28;20655;-14
2021/05/10 18:46:30;;;;;;;2.03;0.87;;;22.00;50.80;;;;;;10488242;28;20203;-14
2021/05/10 18:51:53;;;;;;;0.80;0.60;;;22.10;50.70;;;;;;10478815;28;20216;-14
2021/05/10 18:57:15;;;;;;;1.17;0.80;;;22.10;50.70;;;;;;10493736;28;20195;-15
2021/05/10 19:02:37;;;;;;;1.37;0.80;;;22.10;50.50;;;;;;10476324;28;20225;-15
2021/05/10 19:07:58;;;;;;;2.10;1.00;;;22.10;50.60;;;;;;10453646;28;20254;-14
2021/05/10 19:13:22;;;;;;;0.80;0.80;;;22.20;50.50;;;;;;10453976;28;20208;-14
2021/05/10 19:18:44;;;;;;;4.00;0.80;;;22.40;50.10;;;;;;10484625;28;20204;-15
2021/05/10 19:24:06;;;;;;;21.10;6.83;;;22.60;49.80;;;;;;10490141;28;20694;-16
2021/05/10 19:29:30;;;;;;;6.97;2.57;;;22.80;49.50;;;;;;10492258;28;20192;-14
2021/05/10 19:34:52;;;;;;;4.20;1.63;;;22.60;49.70;;;;;;10490416;28;20421;-13
2021/05/10 19:40:14;;;;;;;5.07;1.60;;;23.70;47.20;;;;;;10484866;28;20219;-13
2021/05/10 19:45:39;;;;;;;9.63;1.83;;;23.20;48.50;;;;;;10457812;28;20213;-14
2021/05/10 19:51:10;;;;;;;6.40;1.70;;;23.00;48.70;;;;;;10480730;28;20224;-14
2021/05/10 20:02:16;;;;;;;3.73;1.50;;;23.00;48.70;;;;;;10463640;28;20229;-13
2021/05/10 20:07:38;;;;;;;2.93;1.60;;;23.10;48.80;;;;;;10478798;28;20192;-15
2021/05/10 20:12:59;;;;;;;3.27;1.30;;;23.00;48.70;;;;;;10500618;28;20208;-15
2021/05/10 20:18:22;;;;;;;2.90;1.40;;;23.00;48.80;;;;;;10475003;28;20251;-15
2021/05/10 20:23:44;;;;;;;2.63;1.40;;;23.10;48.90;;;;;;10458477;28;20213;-13
2021/05/10 20:29:06;;;;;;;1.67;1.30;;;23.00;48.80;;;;;;10458654;28;20664;-13
2021/05/10 20:34:29;;;;;;;2.77;1.33;;;23.00;48.90;;;;;;10458579;28;20209;-16
2021/05/10 20:39:50;;;;;;;2.63;1.23;;;23.00;48.90;;;;;;10466579;28;20203;-14
2021/05/10 20:45:12;;;;;;;1.90;1.10;;;23.00;48.90;;;;;;10477448;28;20224;-14
2021/05/10 20:50:35;;;;;;;2.33;1.30;;;23.00;49.00;;;;;;10485230;28;20246;-14
2021/05/10 20:55:56;;;;;;;2.60;1.37;;;22.90;49.20;;;;;;10467975;28;20239;-15
2021/05/10 21:01:18;;;;;;;2.67;1.07;;;22.80;49.50;;;;;;10469770;28;20236;-14
2021/05/10 21:06:41;;;;;;;3.47;1.43;;;22.70;49.90;;;;;;10588884;22;20237;-14
2021/05/10 21:12:02;;;;;;;1.57;0.90;;;22.70;50.00;;;;;;10630230;27;20208;-14
2021/05/10 21:17:24;;;;;;;2.63;1.10;;;22.50;50.40;;;;;;10626556;27;20229;-14
2021/05/10 21:22:46;;;;;;;2.03;1.30;;;22.50;50.50;;;;;;10628949;27;20217;-15
2021/05/10 21:28:08;;;;;;;1.40;1.20;;;22.50;50.50;;;;;;10626844;27;20217;-14
2021/05/10 21:33:30;;;;;;;1.80;1.10;;;22.50;50.40;;;;;;10627614;27;20610;-13
2021/05/10 21:38:52;;;;;;;1.10;0.87;;;22.40;50.50;;;;;;10622154;27;20202;-16
2021/05/10 21:44:14;;;;;;;3.53;1.10;;;22.40;50.80;;;;;;10627159;27;20218;-16
2021/05/10 21:49:35;;;;;;;1.90;1.00;;;22.40;50.80;;;;;;10627885;27;20193;-14
2021/05/10 21:54:58;;;;;;;1.07;0.80;;;22.30;50.80;;;;;;10627801;27;20762;-14
2021/05/10 22:00:35;;;;;;;0.93;0.90;;;22.40;50.60;;;;;;10627887;27;20247;-15
2021/05/10 22:05:56;;;;;;;1.00;0.83;;;22.40;50.80;;;;;;10627312;27;20605;-16
2021/05/10 22:11:19;;;;;;;1.40;1.00;;;22.40;50.90;;;;;;10668523;27;20189;-14
2021/05/10 22:16:40;;;;;;;1.40;0.87;;;22.30;50.90;;;;;;10640933;27;20753;-14
2021/05/10 22:22:02;;;;;;;1.43;1.20;;;22.30;50.90;;;;;;10625455;27;20597;-15
2021/05/10 22:27:50;;;;;;;1.37;0.90;;;22.30;50.90;;;;;;10616125;27;20297;-17
2021/05/10 22:33:11;;;;;;;1.20;1.07;;;22.20;51.10;;;;;;10618127;27;20581;-16
2021/05/10 22:38:43;;;;;;;1.90;0.90;;;22.20;51.20;;;;;;10650721;27;20209;-14
2021/05/10 22:44:12;;;;;;;2.10;1.00;;;22.10;51.40;;;;;;10667384;27;20241;-14
2021/05/10 23:12:22;;;;;;;0.90;0.80;;;21.90;51.80;;;;;;10667860;27;20242;-14
2021/05/10 23:17:45;;;;;;;1.10;1.00;;;22.00;51.80;;;;;;10631288;27;20242;-14
2021/05/10 23:23:07;;;;;;;1.30;1.00;;;22.10;51.70;;;;;;10624621;27;20215;-14
2021/05/10 23:28:29;;;;;;;1.10;0.93;;;22.00;51.90;;;;;;10652337;27;20846;-13
2021/05/10 23:33:51;;;;;;;1.70;0.80;;;22.10;51.70;;;;;;10666951;27;20193;-14
2021/05/10 23:39:13;;;;;;;1.67;1.13;;;21.90;52.00;;;;;;10667812;27;20190;-14
2021/05/10 23:44:35;;;;;;;1.13;0.90;;;21.90;52.10;;;;;;10667080;27;20576;-14
2021/05/10 23:49:57;;;;;;;0.93;0.70;;;21.90;52.10;;;;;;10668463;27;20223;-15
2021/05/10 23:55:19;;;;;;;0.70;0.70;;;21.80;52.20;;;;;;10667241;27;20209;-14
